sensor_id;sensor_type;location;lat;lon;timestamp;pressure;altitude;pressure_sealevel;temperature;humidity
77325;BME280;66387;53.440;10.390;2023-07-31T00:00:58;100219.19;;;13.91;100.00
77325;BME280;66387;53.440;10.390;2023-07-31T00:03:23;100211.28;;;13.92;100.00
77325;BME280;66387;53.440;10.390;2023-07-31T00:05:48;100211.50;;;13.86;100.00
77325;BME280;66387;53.440;10.390;2023-07-31T00:08:13;100206.16;;;13.89;100.00
77325;BME280;66387;53.440;10.390;2023-07-31T00:10:38;100213.78;;;13.95;100.00
77325;BME280;66387;53.440;10.390;2023-07-31T00:13:04;100205.19;;;13.92;100.00
77325;BME280;66387;53.440;10.390;2023-07-31T00:15:29;100205.91;;;13.97;100.00
77325;BME280;66387;53.440;10.390;2023-07-31T00:17:54;100198.94;;;13.97;100.00
77325;BME280;66387;53.440;10.390;2023-07-31T00:20:20;100197.22;;;13.96;100.00
77325;BME280;66387;53.440;10.390;2023-07-31T00:22:45;100202.53;;;13.95;100.00
77325;BME280;66387;53.440;10.390;2023-07-31T00:25:10;100198.09;;;13.97;100.00
77325;BME280;66387;53.440;10.390;2023-07-31T00:27:35;100193.84;;;13.94;100.00
77325;BME280;66387;53.440;10.390;2023-07-31T00:30:01;100198.22;;;13.92;100.00
77325;BME280;66387;53.440;10.390;2023-07-31T00:32:26;100197.38;;;13.92;100.00
77325;BME280;66387;53.440;10.390;2023-07-31T00:34:51;100188.50;;;13.97;100.00
77325;BME280;66387;53.440;10.390;2023-07-31T00:37:16;100183.28;;;13.97;100.00
77325;BME280;66387;53.440;10.390;2023-07-31T00:39:42;100190.09;;;14.01;100.00
77325;BME280;66387;53.440;10.390;2023-07-31T00:42:07;100178.84;;;13.99;100.00
77325;BME280;66387;53.440;10.390;2023-07-31T00:44:33;100177.00;;;14.03;100.00
77325;BME280;66387;53.440;10.390;2023-07-31T00:46:58;100178.81;;;14.01;100.00
77325;BME280;66387;53.440;10.390;2023-07-31T00:49:25;100182.22;;;14.03;100.00
77325;BME280;66387;53.440;10.390;2023-07-31T00:51:50;100182.13;;;14.06;100.00
77325;BME280;66387;53.440;10.390;2023-07-31T00:54:16;100182.13;;;14.06;100.00
77325;BME280;66387;53.440;10.390;2023-07-31T00:56:41;100179.72;;;14.00;100.00
77325;BME280;66387;53.440;10.390;2023-07-31T00:59:09;100179.53;;;14.06;100.00
77325;BME280;66387;53.440;10.390;2023-07-31T01:01:34;100178.78;;;14.02;100.00
77325;BME280;66387;53.440;10.390;2023-07-31T01:03:59;100168.34;;;14.02;100.00
77325;BME280;66387;53.440;10.390;2023-07-31T01:06:55;100165.63;;;14.05;100.00
77325;BME280;66387;53.440;10.390;2023-07-31T01:09:33;100154.94;;;14.11;100.00
77325;BME280;66387;53.440;10.390;2023-07-31T01:12:03;100159.31;;;14.11;100.00
77325;BME280;66387;53.440;10.390;2023-07-31T01:14:28;100151.72;;;14.05;100.00
77325;BME280;66387;53.440;10.390;2023-07-31T01:16:54;100156.03;;;14.06;100.00
77325;BME280;66387;53.440;10.390;2023-07-31T01:19:23;100154.06;;;14.12;100.00
77325;BME280;66387;53.440;10.390;2023-07-31T01:27:34;100139.28;;;14.11;100.00
77325;BME280;66387;53.440;10.390;2023-07-31T01:30:05;100147.00;;;14.14;100.00
77325;BME280;66387;53.440;10.390;2023-07-31T01:32:36;100141.16;;;14.08;100.00
77325;BME280;66387;53.440;10.390;2023-07-31T01:35:04;100147.00;;;14.14;100.00
77325;BME280;66387;53.440;10.390;2023-07-31T01:37:29;100133.22;;;14.11;100.00
77325;BME280;66387;53.440;10.390;2023-07-31T01:39:55;100144.50;;;14.11;100.00
77325;BME280;66387;53.440;10.390;2023-07-31T01:42:20;100130.41;;;14.17;100.00
77325;BME280;66387;53.440;10.390;2023-07-31T01:44:45;100131.31;;;14.16;100.00
77325;BME280;66387;53.440;10.390;2023-07-31T01:47:11;100132.16;;;14.16;100.00
77325;BME280;66387;53.440;10.390;2023-07-31T01:49:36;100128.84;;;14.11;100.00
77325;BME280;66387;53.440;10.390;2023-07-31T01:52:01;100124.41;;;14.13;100.00
77325;BME280;66387;53.440;10.390;2023-07-31T01:54:26;100122.78;;;14.11;100.00
77325;BME280;66387;53.440;10.390;2023-07-31T01:56:52;100117.50;;;14.12;100.00
77325;BME280;66387;53.440;10.390;2023-07-31T01:59:17;100119.28;;;14.12;100.00
77325;BME280;66387;53.440;10.390;2023-07-31T02:01:42;100121.81;;;14.13;100.00
77325;BME280;66387;53.440;10.390;2023-07-31T02:04:07;100120.06;;;14.14;100.00
77325;BME280;66387;53.440;10.390;2023-07-31T02:06:33;100112.22;;;14.14;100.00
77325;BME280;66387;53.440;10.390;2023-07-31T02:08:58;100108.56;;;14.19;100.00
77325;BME280;66387;53.440;10.390;2023-07-31T02:11:23;100104.22;;;14.18;100.00
77325;BME280;66387;53.440;10.390;2023-07-31T02:13:48;100101.63;;;14.18;100.00
77325;BME280;66387;53.440;10.390;2023-07-31T02:16:14;100094.69;;;14.17;100.00
77325;BME280;66387;53.440;10.390;2023-07-31T02:18:39;100098.78;;;14.24;100.00
77325;BME280;66387;53.440;10.390;2023-07-31T02:21:04;100102.09;;;14.30;100.00
77325;BME280;66387;53.440;10.390;2023-07-31T02:23:30;100097.75;;;14.29;100.00
77325;BME280;66387;53.440;10.390;2023-07-31T02:25:55;100100.34;;;14.30;100.00
77325;BME280;66387;53.440;10.390;2023-07-31T02:28:20;100094.38;;;14.27;100.00
77325;BME280;66387;53.440;10.390;2023-07-31T02:30:45;100090.00;;;14.27;100.00
77325;BME280;66387;53.440;10.390;2023-07-31T02:33:15;100091.13;;;14.20;100.00
77325;BME280;66387;53.440;10.390;2023-07-31T02:35:41;100085.91;;;14.20;100.00
77325;BME280;66387;53.440;10.390;2023-07-31T02:38:06;100072.66;;;14.24;100.00
77325;BME280;66387;53.440;10.390;2023-07-31T02:40:31;100067.44;;;14.24;100.00
77325;BME280;66387;53.440;10.390;2023-07-31T02:42:57;100069.03;;;14.29;100.00
77325;BME280;66387;53.440;10.390;2023-07-31T02:45:22;100079.41;;;14.32;100.00
77325;BME280;66387;53.440;10.390;2023-07-31T02:47:47;100080.22;;;14.32;100.00
77325;BME280;66387;53.440;10.390;2023-07-31T02:50:12;100081.09;;;14.33;100.00
77325;BME280;66387;53.440;10.390;2023-07-31T02:52:38;100075.97;;;14.30;100.00
77325;BME280;66387;53.440;10.390;2023-07-31T02:55:03;100080.31;;;14.31;100.00
77325;BME280;66387;53.440;10.390;2023-07-31T02:57:28;100073.25;;;14.33;100.00
77325;BME280;66387;53.440;10.390;2023-07-31T02:59:54;100081.31;;;14.27;100.00
77325;BME280;66387;53.440;10.390;2023-07-31T03:02:19;100075.19;;;14.28;100.00
77325;BME280;66387;53.440;10.390;2023-07-31T03:04:45;100069.00;;;14.30;100.00
77325;BME280;66387;53.440;10.390;2023-07-31T03:07:10;100071.63;;;14.30;100.00
77325;BME280;66387;53.440;10.390;2023-07-31T03:09:35;100065.41;;;14.33;100.00
77325;BME280;66387;53.440;10.390;2023-07-31T03:12:00;100069.03;;;14.29;100.00
77325;BME280;66387;53.440;10.390;2023-07-31T03:14:26;100073.31;;;14.31;100.00
77325;BME280;66387;53.440;10.390;2023-07-31T03:16:52;100064.75;;;14.28;100.00
77325;BME280;66387;53.440;10.390;2023-07-31T03:19:17;100059.41;;;14.31;100.00
77325;BME280;66387;53.440;10.390;2023-07-31T03:21:42;100054.06;;;14.35;100.00
77325;BME280;66387;53.440;10.390;2023-07-31T03:24:07;100049.81;;;14.31;100.00
77325;BME280;66387;53.440;10.390;2023-07-31T03:26:33;100048.97;;;14.31;100.00
77325;BME280;66387;53.440;10.390;2023-07-31T03:28:58;100044.53;;;14.33;100.00
77325;BME280;66387;53.440;10.390;2023-07-31T03:31:23;100036.69;;;14.34;100.00
77325;BME280;66387;53.440;10.390;2023-07-31T03:33:49;100040.41;;;14.27;100.00
77325;BME280;66387;53.440;10.390;2023-07-31T03:36:14;100029.84;;;14.30;100.00
77325;BME280;66387;53.440;10.390;2023-07-31T03:38:39;100028.78;;;14.36;100.00
77325;BME280;66387;53.440;10.390;2023-07-31T03:41:04;100025.41;;;14.32;100.00
77325;BME280;66387;53.440;10.390;2023-07-31T03:43:31;100024.63;;;14.30;100.00
77325;BME280;66387;53.440;10.390;2023-07-31T03:45:59;100031.47;;;14.33;100.00
77325;BME280;66387;53.440;10.390;2023-07-31T03:48:24;100022.78;;;14.32;100.00
77325;BME280;66387;53.440;10.390;2023-07-31T03:50:49;100027.94;;;14.35;100.00
77325;BME280;66387;53.440;10.390;2023-07-31T03:53:14;100022.72;;;14.35;100.00
77325;BME280;66387;53.440;10.390;2023-07-31T03:55:40;100033.06;;;14.38;100.00
77325;BME280;66387;53.440;10.390;2023-07-31T03:58:05;100034.81;;;14.38;100.00
77325;BME280;66387;53.440;10.390;2023-07-31T04:00:30;100035.66;;;14.38;100.00
77325;BME280;66387;53.440;10.390;2023-07-31T04:02:56;100029.50;;;14.39;100.00
77325;BME280;66387;53.440;10.390;2023-07-31T04:05:21;100044.22;;;14.42;100.00
77325;BME280;66387;53.440;10.390;2023-07-31T04:07:46;100050.97;;;14.47;100.00
77325;BME280;66387;53.440;10.390;2023-07-31T04:10:11;100053.56;;;14.47;100.00
77325;BME280;66387;53.440;10.390;2023-07-31T04:12:37;100045.56;;;14.52;100.00
77325;BME280;66387;53.440;10.390;2023-07-31T04:15:02;100050.03;;;14.50;100.00
77325;BME280;66387;53.440;10.390;2023-07-31T04:17:27;100046.44;;;14.52;100.00
77325;BME280;66387;53.440;10.390;2023-07-31T04:19:52;100038.72;;;14.49;100.00
77325;BME280;66387;53.440;10.390;2023-07-31T04:22:18;100042.19;;;14.50;100.00
77325;BME280;66387;53.440;10.390;2023-07-31T04:24:43;100038.63;;;14.51;100.00
77325;BME280;66387;53.440;10.390;2023-07-31T04:27:08;100032.56;;;14.50;100.00
77325;BME280;66387;53.440;10.390;2023-07-31T04:29:33;100036.03;;;14.51;100.00
77325;BME280;66387;53.440;10.390;2023-07-31T04:31:59;100042.84;;;14.55;100.00
77325;BME280;66387;53.440;10.390;2023-07-31T04:34:24;100039.34;;;14.56;100.00
77325;BME280;66387;53.440;10.390;2023-07-31T04:36:49;100036.72;;;14.56;100.00
77325;BME280;66387;53.440;10.390;2023-07-31T04:39:14;100037.69;;;14.53;100.00
77325;BME280;66387;53.440;10.390;2023-07-31T04:41:40;100044.47;;;14.57;100.00
77325;BME280;66387;53.440;10.390;2023-07-31T04:44:05;100037.44;;;14.59;100.00
77325;BME280;66387;53.440;10.390;2023-07-31T04:46:30;100044.44;;;14.59;100.00
77325;BME280;66387;53.440;10.390;2023-07-31T04:48:56;100026.03;;;14.62;100.00
77325;BME280;66387;53.440;10.390;2023-07-31T04:51:21;100026.03;;;14.62;100.00
77325;BME280;66387;53.440;10.390;2023-07-31T04:53:46;100031.19;;;14.63;100.00
77325;BME280;66387;53.440;10.390;2023-07-31T04:56:12;100018.88;;;14.67;100.00
77325;BME280;66387;53.440;10.390;2023-07-31T04:58:37;100018.06;;;14.65;100.00
77325;BME280;66387;53.440;10.390;2023-07-31T05:01:02;100014.72;;;14.61;100.00
77325;BME280;66387;53.440;10.390;2023-07-31T05:03:27;100012.06;;;14.63;100.00
77325;BME280;66387;53.440;10.390;2023-07-31T05:05:53;100008.63;;;14.61;100.00
77325;BME280;66387;53.440;10.390;2023-07-31T05:08:18;100007.69;;;14.63;100.00
77325;BME280;66387;53.440;10.390;2023-07-31T05:10:43;100005.25;;;14.59;100.00
77325;BME280;66387;53.440;10.390;2023-07-31T05:13:09;99999.34;;;14.54;100.00
77325;BME280;66387;53.440;10.390;2023-07-31T05:15:34;100000.88;;;14.59;100.00
77325;BME280;66387;53.440;10.390;2023-07-31T05:17:59;99994.03;;;14.57;100.00
77325;BME280;66387;53.440;10.390;2023-07-31T05:20:24;99986.34;;;14.52;100.00
77325;BME280;66387;53.440;10.390;2023-07-31T05:22:50;99999.34;;;14.54;100.00
77325;BME280;66387;53.440;10.390;2023-07-31T05:25:16;99996.72;;;14.54;100.00
77325;BME280;66387;53.440;10.390;2023-07-31T05:27:41;99990.69;;;14.53;100.00
77325;BME280;66387;53.440;10.390;2023-07-31T05:30:07;99988.16;;;14.50;100.00
77325;BME280;66387;53.440;10.390;2023-07-31T05:32:32;99989.09;;;14.49;100.00
77325;BME280;66387;53.440;10.390;2023-07-31T05:34:57;99993.47;;;14.49;100.00
77325;BME280;66387;53.440;10.390;2023-07-31T05:37:23;99984.72;;;14.50;100.00
77325;BME280;66387;53.440;10.390;2023-07-31T05:39:48;99974.38;;;14.47;100.00
77325;BME280;66387;53.440;10.390;2023-07-31T05:42:13;99982.16;;;14.48;100.00
77325;BME280;66387;53.440;10.390;2023-07-31T05:44:39;99978.53;;;14.52;100.00
77325;BME280;66387;53.440;10.390;2023-07-31T05:47:04;99972.41;;;14.53;100.00
77325;BME280;66387;53.440;10.390;2023-07-31T05:49:30;99978.34;;;14.57;100.00
77325;BME280;66387;53.440;10.390;2023-07-31T05:51:55;99979.25;;;14.56;100.00
77325;BME280;66387;53.440;10.390;2023-07-31T05:54:20;99980.03;;;14.58;100.00
77325;BME280;66387;53.440;10.390;2023-07-31T05:56:45;99972.91;;;14.61;100.00
77325;BME280;66387;53.440;10.390;2023-07-31T05:59:12;99979.00;;;14.62;100.00
77325;BME280;66387;53.440;10.390;2023-07-31T06:01:37;99973.03;;;14.58;100.00
77325;BME280;66387;53.440;10.390;2023-07-31T06:04:03;99975.75;;;14.57;100.00
77325;BME280;66387;53.440;10.390;2023-07-31T06:06:28;99979.72;;;14.65;100.00
77325;BME280;66387;53.440;10.390;2023-07-31T06:08:53;99982.13;;;14.71;100.00
77325;BME280;66387;53.440;10.390;2023-07-31T06:11:20;99980.22;;;14.75;100.00
77325;BME280;66387;53.440;10.390;2023-07-31T06:13:45;99981.06;;;14.76;100.00
77325;BME280;66387;53.440;10.390;2023-07-31T06:16:12;99969.06;;;14.71;100.00
77325;BME280;66387;53.440;10.390;2023-07-31T06:18:37;99975.00;;;14.75;100.00
77325;BME280;66387;53.440;10.390;2023-07-31T06:21:02;99975.47;;;14.85;100.00
77325;BME280;66387;53.440;10.390;2023-07-31T06:23:27;99963.31;;;14.84;100.00
77325;BME280;66387;53.440;10.390;2023-07-31T06:25:53;99970.19;;;14.86;100.00
77325;BME280;66387;53.440;10.390;2023-07-31T06:28:18;99962.28;;;14.88;100.00
77325;BME280;66387;53.440;10.390;2023-07-31T06:30:43;99964.63;;;14.94;100.00
77325;BME280;66387;53.440;10.390;2023-07-31T06:33:08;99958.44;;;14.96;100.00
77325;BME280;66387;53.440;10.390;2023-07-31T06:35:34;99957.59;;;14.96;100.00
77325;BME280;66387;53.440;10.390;2023-07-31T06:37:59;99956.47;;;15.01;100.00
77325;BME280;66387;53.440;10.390;2023-07-31T06:40:24;99953.03;;;15.01;100.00
77325;BME280;66387;53.440;10.390;2023-07-31T06:42:50;99951.38;;;14.98;100.00
77325;BME280;66387;53.440;10.390;2023-07-31T06:45:15;99950.41;;;15.01;100.00
77325;BME280;66387;53.440;10.390;2023-07-31T06:47:40;99954.72;;;15.02;100.00
77325;BME280;66387;53.440;10.390;2023-07-31T06:50:07;99946.63;;;15.08;100.00
77325;BME280;66387;53.440;10.390;2023-07-31T06:52:32;99944.66;;;15.13;100.00
77325;BME280;66387;53.440;10.390;2023-07-31T06:55:19;99941.72;;;15.20;100.00
77325;BME280;66387;53.440;10.390;2023-07-31T06:57:45;99941.59;;;15.23;100.00
77325;BME280;66387;53.440;10.390;2023-07-31T07:00:11;99939.56;;;15.30;100.00
77325;BME280;66387;53.440;10.390;2023-07-31T07:02:36;99939.22;;;15.38;100.00
77325;BME280;66387;53.440;10.390;2023-07-31T07:05:01;99937.53;;;15.37;100.00
77325;BME280;66387;53.440;10.390;2023-07-31T07:07:27;99951.47;;;15.37;100.00
77325;BME280;66387;53.440;10.390;2023-07-31T07:09:52;99947.00;;;15.39;100.00
77325;BME280;66387;53.440;10.390;2023-07-31T07:12:18;99953.16;;;15.38;100.00
77325;BME280;66387;53.440;10.390;2023-07-31T07:14:43;99946.09;;;15.40;100.00
77325;BME280;66387;53.440;10.390;2023-07-31T07:17:10;99930.19;;;15.45;100.00
77325;BME280;66387;53.440;10.390;2023-07-31T07:19:40;99932.09;;;15.41;100.00
77325;BME280;66387;53.440;10.390;2023-07-31T07:22:05;99946.03;;;15.42;100.00
77325;BME280;66387;53.440;10.390;2023-07-31T07:24:30;99951.06;;;15.46;100.00
77325;BME280;66387;53.440;10.390;2023-07-31T07:26:56;99958.06;;;15.46;100.00
77325;BME280;66387;53.440;10.390;2023-07-31T07:29:21;99958.19;;;15.43;100.00
77325;BME280;66387;53.440;10.390;2023-07-31T07:31:46;99962.28;;;15.48;100.00
77325;BME280;66387;53.440;10.390;2023-07-31T07:34:12;99957.94;;;15.49;100.00
77325;BME280;66387;53.440;10.390;2023-07-31T07:36:37;99946.59;;;15.48;100.00
77325;BME280;66387;53.440;10.390;2023-07-31T07:39:02;99953.25;;;15.57;100.00
77325;BME280;66387;53.440;10.390;2023-07-31T07:41:28;99945.66;;;15.51;100.00
77325;BME280;66387;53.440;10.390;2023-07-31T07:43:53;99944.75;;;15.52;100.00
77325;BME280;66387;53.440;10.390;2023-07-31T07:46:18;99942.84;;;15.55;100.00
77325;BME280;66387;53.440;10.390;2023-07-31T07:48:43;99945.09;;;15.63;100.00
77325;BME280;66387;53.440;10.390;2023-07-31T07:51:08;99940.81;;;15.62;100.00
77325;BME280;66387;53.440;10.390;2023-07-31T07:53:34;99938.06;;;15.65;100.00
77325;BME280;66387;53.440;10.390;2023-07-31T07:55:59;99937.91;;;15.68;100.00
77325;BME280;66387;53.440;10.390;2023-07-31T07:58:24;99934.91;;;15.77;100.00
77325;BME280;66387;53.440;10.390;2023-07-31T08:00:50;99939.06;;;15.81;100.00
77325;BME280;66387;53.440;10.390;2023-07-31T08:03:16;99939.75;;;15.85;100.00
77325;BME280;66387;53.440;10.390;2023-07-31T08:05:43;99935.38;;;15.85;100.00
77325;BME280;66387;53.440;10.390;2023-07-31T08:08:14;99924.91;;;15.85;100.00
77325;BME280;66387;53.440;10.390;2023-07-31T08:10:41;99935.31;;;15.87;100.00
77325;BME280;66387;53.440;10.390;2023-07-31T08:13:06;99918.81;;;15.85;100.00
77325;BME280;66387;53.440;10.390;2023-07-31T08:15:32;99929.25;;;15.86;100.00
77325;BME280;66387;53.440;10.390;2023-07-31T08:17:57;99923.44;;;15.80;100.00
77325;BME280;66387;53.440;10.390;2023-07-31T08:20:22;99914.69;;;15.81;100.00
77325;BME280;66387;53.440;10.390;2023-07-31T08:22:47;99911.78;;;15.87;100.00
77325;BME280;66387;53.440;10.390;2023-07-31T08:25:13;99910.91;;;15.86;100.00
77325;BME280;66387;53.440;10.390;2023-07-31T08:27:38;99906.53;;;15.87;100.00
77325;BME280;66387;53.440;10.390;2023-07-31T08:30:03;99898.63;;;15.88;100.00
77325;BME280;66387;53.440;10.390;2023-07-31T08:32:29;99890.78;;;15.88;100.00
77325;BME280;66387;53.440;10.390;2023-07-31T08:34:54;99903.22;;;15.83;100.00
77325;BME280;66387;53.440;10.390;2023-07-31T08:37:19;99894.34;;;15.86;100.00
77325;BME280;66387;53.440;10.390;2023-07-31T08:39:46;99896.06;;;15.87;100.00
77325;BME280;66387;53.440;10.390;2023-07-31T08:42:11;99885.59;;;15.87;100.00
77325;BME280;66387;53.440;10.390;2023-07-31T08:44:37;99888.28;;;15.85;100.00
77325;BME280;66387;53.440;10.390;2023-07-31T08:47:03;99883.34;;;15.79;100.00
77325;BME280;66387;53.440;10.390;2023-07-31T08:49:30;99888.22;;;15.87;100.00
77325;BME280;66387;53.440;10.390;2023-07-31T08:51:55;99893.38;;;15.88;100.00
77325;BME280;66387;53.440;10.390;2023-07-31T08:54:23;99887.31;;;15.88;100.00
77325;BME280;66387;53.440;10.390;2023-07-31T08:56:49;99890.97;;;15.84;100.00
77325;BME280;66387;53.440;10.390;2023-07-31T08:59:15;99888.28;;;15.85;100.00
77325;BME280;66387;53.440;10.390;2023-07-31T09:01:43;99885.31;;;15.93;100.00
77325;BME280;66387;53.440;10.390;2023-07-31T09:04:12;99879.09;;;15.95;100.00
77325;BME280;66387;53.440;10.390;2023-07-31T09:06:38;99877.25;;;15.97;100.00
77325;BME280;66387;53.440;10.390;2023-07-31T09:09:03;99874.31;;;16.03;100.00
77325;BME280;66387;53.440;10.390;2023-07-31T09:11:29;99874.22;;;16.06;100.00
77325;BME280;66387;53.440;10.390;2023-07-31T09:13:57;99874.22;;;16.06;100.00
77325;BME280;66387;53.440;10.390;2023-07-31T09:16:28;99872.56;;;16.04;100.00
77325;BME280;66387;53.440;10.390;2023-07-31T09:18:56;99872.56;;;16.04;100.00
77325;BME280;66387;53.440;10.390;2023-07-31T09:21:22;99860.47;;;16.01;100.00
77325;BME280;66387;53.440;10.390;2023-07-31T09:23:49;99877.38;;;15.94;100.00
77325;BME280;66387;53.440;10.390;2023-07-31T09:26:34;99865.72;;;15.83;100.00
77325;BME280;66387;53.440;10.390;2023-07-31T09:29:01;99858.78;;;15.82;100.00
77325;BME280;66387;53.440;10.390;2023-07-31T09:31:39;99858.56;;;15.86;100.00
77325;BME280;66387;53.440;10.390;2023-07-31T09:34:05;99850.56;;;15.89;100.00
77325;BME280;66387;53.440;10.390;2023-07-31T09:36:30;99851.06;;;15.97;100.00
77325;BME280;66387;53.440;10.390;2023-07-31T09:39:01;99849.31;;;15.98;100.00
77325;BME280;66387;53.440;10.390;2023-07-31T09:41:27;99842.91;;;16.03;100.00
77325;BME280;66387;53.440;10.390;2023-07-31T09:43:55;99842.69;;;16.08;100.00
77325;BME280;66387;53.440;10.390;2023-07-31T09:46:21;99842.84;;;16.05;100.00
77325;BME280;66387;53.440;10.390;2023-07-31T09:48:47;99838.31;;;16.08;100.00
77325;BME280;66387;53.440;10.390;2023-07-31T09:51:12;99829.75;;;16.05;100.00
77325;BME280;66387;53.440;10.390;2023-07-31T09:53:37;99831.38;;;16.07;100.00
77325;BME280;66387;53.440;10.390;2023-07-31T09:56:05;99832.16;;;16.09;100.00
77325;BME280;66387;53.440;10.390;2023-07-31T09:58:34;99823.53;;;16.07;100.00
77325;BME280;66387;53.440;10.390;2023-07-31T10:01:01;99817.66;;;16.02;100.00
77325;BME280;66387;53.440;10.390;2023-07-31T10:03:29;99820.91;;;16.07;100.00
77325;BME280;66387;53.440;10.390;2023-07-31T10:05:57;99820.00;;;16.08;100.00
77325;BME280;66387;53.440;10.390;2023-07-31T10:08:28;99808.50;;;16.11;100.00
77325;BME280;66387;53.440;10.390;2023-07-31T10:10:58;99811.81;;;16.14;100.00
77325;BME280;66387;53.440;10.390;2023-07-31T10:13:24;99809.22;;;16.14;100.00
77325;BME280;66387;53.440;10.390;2023-07-31T10:15:50;99799.69;;;16.13;100.00
77325;BME280;66387;53.440;10.390;2023-07-31T10:18:16;99798.72;;;16.14;100.00
77325;BME280;66387;53.440;10.390;2023-07-31T10:20:43;99797.81;;;16.15;100.00
77325;BME280;66387;53.440;10.390;2023-07-31T10:23:09;99797.59;;;16.20;100.00
77325;BME280;66387;53.440;10.390;2023-07-31T10:25:36;99801.06;;;16.21;100.00
77325;BME280;66387;53.440;10.390;2023-07-31T10:28:02;99797.28;;;16.26;100.00
77325;BME280;66387;53.440;10.390;2023-07-31T10:30:29;99804.94;;;16.31;100.00
77325;BME280;66387;53.440;10.390;2023-07-31T10:32:55;99796.16;;;16.32;100.00
77325;BME280;66387;53.440;10.390;2023-07-31T10:35:22;99798.63;;;16.35;100.00
77325;BME280;66387;53.440;10.390;2023-07-31T10:37:47;99803.69;;;16.38;100.00
77325;BME280;66387;53.440;10.390;2023-07-31T10:40:19;99791.34;;;16.40;100.00
77325;BME280;66387;53.440;10.390;2023-07-31T10:42:49;99794.78;;;16.42;100.00
77325;BME280;66387;53.440;10.390;2023-07-31T10:48:02;99791.22;;;16.43;100.00
77325;BME280;66387;53.440;10.390;2023-07-31T10:50:29;99791.84;;;16.48;100.00
77325;BME280;66387;53.440;10.390;2023-07-31T10:52:56;99790.00;;;16.50;100.00
77325;BME280;66387;53.440;10.390;2023-07-31T10:55:32;99789.06;;;16.51;100.00
77325;BME280;66387;53.440;10.390;2023-07-31T10:58:06;99781.03;;;16.54;100.00
77325;BME280;66387;53.440;10.390;2023-07-31T11:00:32;99781.69;;;16.59;100.00
77325;BME280;66387;53.440;10.390;2023-07-31T11:05:49;99779.22;;;16.73;100.00
77325;BME280;66387;53.440;10.390;2023-07-31T11:08:23;99789.53;;;16.76;100.00
77325;BME280;66387;53.440;10.390;2023-07-31T11:11:06;99773.81;;;16.76;100.00
77325;BME280;66387;53.440;10.390;2023-07-31T11:13:49;99780.91;;;16.74;100.00
77325;BME280;66387;53.440;10.390;2023-07-31T11:16:15;99776.34;;;16.78;100.00
77325;BME280;66387;53.440;10.390;2023-07-31T11:18:42;99767.56;;;16.79;100.00
77325;BME280;66387;53.440;10.390;2023-07-31T11:21:12;99771.88;;;16.80;100.00
77325;BME280;66387;53.440;10.390;2023-07-31T11:23:37;99775.44;;;16.79;100.00
77325;BME280;66387;53.440;10.390;2023-07-31T11:26:04;99771.63;;;16.84;100.00
77325;BME280;66387;53.440;10.390;2023-07-31T11:28:32;99773.66;;;16.79;100.00
77325;BME280;66387;53.440;10.390;2023-07-31T11:30:58;99779.22;;;16.73;100.00
77325;BME280;66387;53.440;10.390;2023-07-31T11:33:23;99765.19;;;16.74;100.00
77325;BME280;66387;53.440;10.390;2023-07-31T11:35:48;99765.03;;;16.77;100.00
77325;BME280;66387;53.440;10.390;2023-07-31T11:38:33;99758.53;;;16.84;100.00
77325;BME280;66387;53.440;10.390;2023-07-31T11:41:04;99760.00;;;16.90;100.00
77325;BME280;66387;53.440;10.390;2023-07-31T11:43:33;99758.38;;;16.87;100.00
77325;BME280;66387;53.440;10.390;2023-07-31T11:46:02;99746.97;;;16.88;100.00
77325;BME280;66387;53.440;10.390;2023-07-31T11:48:33;99745.41;;;16.84;100.00
77325;BME280;66387;53.440;10.390;2023-07-31T11:51:02;99749.97;;;16.81;100.00
77325;BME280;66387;53.440;10.390;2023-07-31T11:53:49;99744.66;;;16.82;100.00
77325;BME280;66387;53.440;10.390;2023-07-31T11:56:20;99748.28;;;16.80;100.00
77325;BME280;66387;53.440;10.390;2023-07-31T11:58:49;99745.06;;;16.75;100.00
77325;BME280;66387;53.440;10.390;2023-07-31T12:01:18;99746.50;;;16.80;100.00
77325;BME280;66387;53.440;10.390;2023-07-31T12:03:45;99752.53;;;16.82;100.00
77325;BME280;66387;53.440;10.390;2023-07-31T12:06:11;99741.25;;;16.80;100.00
77325;BME280;66387;53.440;10.390;2023-07-31T12:08:36;99747.47;;;16.79;100.00
77325;BME280;66387;53.440;10.390;2023-07-31T12:11:03;99746.50;;;16.80;100.00
77325;BME280;66387;53.440;10.390;2023-07-31T12:13:30;99738.81;;;16.77;100.00
77325;BME280;66387;53.440;10.390;2023-07-31T12:15:57;99737.88;;;16.78;100.00
77325;BME280;66387;53.440;10.390;2023-07-31T12:18:28;99737.56;;;16.84;100.00
77325;BME280;66387;53.440;10.390;2023-07-31T12:20:55;99746.22;;;16.86;100.00
77325;BME280;66387;53.440;10.390;2023-07-31T12:23:23;99739.94;;;16.89;100.00
77325;BME280;66387;53.440;10.390;2023-07-31T12:26:03;99738.19;;;16.89;100.00
77325;BME280;66387;53.440;10.390;2023-07-31T12:28:29;99736.13;;;16.94;100.00
77325;BME280;66387;53.440;10.390;2023-07-31T12:31:00;99729.41;;;16.90;100.00
77325;BME280;66387;53.440;10.390;2023-07-31T12:33:31;99730.16;;;16.92;100.00
77325;BME280;66387;53.440;10.390;2023-07-31T12:35:56;99726.00;;;16.88;100.00
77325;BME280;66387;53.440;10.390;2023-07-31T12:38:22;99726.78;;;16.90;100.00
77325;BME280;66387;53.440;10.390;2023-07-31T12:40:47;99720.56;;;16.91;100.00
77325;BME280;66387;53.440;10.390;2023-07-31T12:43:13;99699.44;;;16.94;100.00